Terminal Aerodrome Forecast
Issued by NWS

Home | Current Version | Previous Version | Text Only | Print | Product List | Glossary On
Versions: 1 2 3 4 5 6 7 8 9 10 11 12 13 14 15 16 17 18 19 20 21 22 23 24 25
000
FTUS43 KLSX 170520
TAFCPS
TAF
KCPS 170520Z 1706/1806 21011G21KT 6SM -SHRA VCTS BKN035CB
      TEMPO 1706/1708 2SM +TSRA OVC020CB
     FM170900 22010KT P6SM VCSH BKN035
     FM171200 24009KT P6SM BKN020
     FM171800 27012KT P6SM SCT030
     FM180100 27007KT P6SM SKC=

USA.gov is the U.S. government's official web portal to all federal, state and local government web resources and services.